PWSweather.com
Personal Weather Stations
Station Observations
GEELONGWX1
Bell Post Hill, GeelongAU

Bell Post HillGeelongAU

Lat: -38.101, Lon: 144.326

Elevation: 204

Station Type: Davis Vantage Pro2

http://www.geelongweather.com

Latest ConditionsUpdated 1:00:00 PM GMT+10:10 Wednesday, Apr 1, 2015
Currently Today's Max Today's Min Today's Average
Temperature 81.3°F27.4°C 85.4°F29.7°C 75.3°F24.1°C 80.7°F27.1°C
Dew Point 50.2°F10.1°C 55.6°F13.1°C 50.2°F10.1°C 52.9°F11.6°C
Winds 1.2 mph WSW1.9 kmh WSW 8.1 mph WSW13.0 kmh WSW - 4.3 mph 6.9 kmh
Wind Gusts 3.5 mph5.6 kmh 13.8 mph22.2 kmh - -
Humidity 34% 46% 32% 39%
Pressure 30.03 in1016.9 mb 30.11 in1019.6 mb 30.03 in1016.9 mb -
Hour Temp Dew Point Humidity Winds Wind Gusts Pressure Precip Precip Rate Daily Precip Total
01:00 PM 81.3°F27.4°C 50.2°F10.1°C 34% 1.2 mph WSW1.9 kmh WSW 3.5 mph5.6 kmh 30.03 in1016.9 mb - 0.00 in0.0 mm 0.00 in0.0 mm
12:50 PM 82.3°F27.9°C 50.3°F10.2°C 33% 8.1 mph WSW13.0 kmh WSW 13.8 mph22.2 kmh 30.03 in1016.9 mb - 0.00 in0.0 mm 0.00 in0.0 mm
12:40 PM 83.0°F28.3°C 51.7°F10.9°C 34% 2.3 mph W3.7 kmh W 11.5 mph18.5 kmh 30.03 in1016.9 mb - 0.00 in0.0 mm 0.00 in0.0 mm
12:30 PM 83.9°F28.8°C 51.7°F10.9°C 33% 4.6 mph W7.4 kmh W 9.2 mph14.8 kmh 30.04 in1017.3 mb - 0.00 in0.0 mm 0.00 in0.0 mm
12:10 PM 85.4°F29.7°C 52.2°F11.2°C 32% 5.8 mph WSW9.3 kmh WSW 12.7 mph20.4 kmh 30.04 in1017.3 mb - 0.00 in0.0 mm 0.00 in0.0 mm
12:00 PM 84.4°F29.1°C 51.3°F10.7°C 32% 5.8 mph WSW9.3 kmh WSW 8.1 mph13.0 kmh 30.05 in1017.6 mb - 0.00 in0.0 mm 0.00 in0.0 mm
11:50 AM 85.3°F29.6°C 52.9°F11.6°C 33% 3.5 mph SW5.6 kmh SW 6.9 mph11.1 kmh 30.05 in1017.6 mb - 0.00 in0.0 mm 0.00 in0.0 mm
11:40 AM 82.9°F28.3°C 52.5°F11.4°C 35% 2.3 mph W3.7 kmh W 9.2 mph14.8 kmh 30.06 in1017.9 mb - 0.00 in0.0 mm 0.00 in0.0 mm
11:30 AM 83.2°F28.4°C 53.5°F11.9°C 36% 5.8 mph W9.3 kmh W 10.4 mph16.7 kmh 30.07 in1018.3 mb - 0.00 in0.0 mm 0.00 in0.0 mm
11:20 AM 79.5°F26.4°C 55.0°F12.8°C 43% 1.2 mph NNW1.9 kmh NNW 2.3 mph3.7 kmh 30.07 in1018.3 mb - 0.00 in0.0 mm 0.00 in0.0 mm
11:10 AM 80.1°F26.7°C 55.6°F13.1°C 43% 3.5 mph NNW5.6 kmh NNW 6.9 mph11.1 kmh 30.08 in1018.6 mb - 0.00 in0.0 mm 0.00 in0.0 mm
11:00 AM 79.2°F26.2°C 55.4°F13.0°C 44% 3.5 mph N5.6 kmh N 5.8 mph9.3 kmh 30.08 in1018.6 mb - 0.00 in0.0 mm 0.00 in0.0 mm
10:50 AM 78.7°F25.9°C 54.3°F12.4°C 43% 2.3 mph NW3.7 kmh NW 6.9 mph11.1 kmh 30.09 in1019.0 mb - 0.00 in0.0 mm 0.00 in0.0 mm
10:40 AM 78.3°F25.7°C 53.3°F11.8°C 42% 4.6 mph NW7.4 kmh NW 6.9 mph11.1 kmh 30.09 in1019.0 mb - 0.00 in0.0 mm 0.00 in0.0 mm
10:30 AM 77.3°F25.2°C 53.1°F11.7°C 43% 5.8 mph NW9.3 kmh NW 8.1 mph13.0 kmh 30.10 in1019.3 mb - 0.00 in0.0 mm 0.00 in0.0 mm
10:20 AM 76.9°F24.9°C 53.3°F11.8°C 44% 5.8 mph NW9.3 kmh NW 8.1 mph13.0 kmh 30.10 in1019.3 mb - 0.00 in0.0 mm 0.00 in0.0 mm
10:10 AM 75.4°F24.1°C 52.6°F11.4°C 45% 6.9 mph NW11.1 kmh NW 10.4 mph16.7 kmh 30.11 in1019.6 mb - 0.00 in0.0 mm 0.00 in0.0 mm
10:00 AM 75.3°F24.1°C 53.1°F11.7°C 46% 3.5 mph NW5.6 kmh NW 5.8 mph9.3 kmh 30.11 in1019.6 mb - 0.00 in0.0 mm 0.00 in0.0 mm
09:50 AM 74.8°F23.8°C 53.2°F11.8°C 47% 4.6 mph NW7.4 kmh NW 6.9 mph11.1 kmh 30.11 in1019.6 mb - 0.00 in0.0 mm 0.00 in0.0 mm
09:40 AM 74.3°F23.5°C 52.2°F11.2°C 46% 5.8 mph NW9.3 kmh NW 10.4 mph16.7 kmh 30.11 in1019.6 mb - 0.00 in0.0 mm 0.00 in0.0 mm
09:30 AM 74.6°F23.7°C 52.4°F11.3°C 46% 1.2 mph NW1.9 kmh NW 1.2 mph1.9 kmh 30.11 in1019.6 mb - 0.00 in0.0 mm 0.00 in0.0 mm
09:20 AM 74.8°F23.8°C 52.6°F11.4°C 46% 3.5 mph NW5.6 kmh NW 5.8 mph9.3 kmh 30.12 in1020.0 mb - 0.00 in0.0 mm 0.00 in0.0 mm
09:10 AM 72.8°F22.7°C 51.9°F11.1°C 48% 5.8 mph NW9.3 kmh NW 8.1 mph13.0 kmh 30.13 in1020.3 mb - 0.00 in0.0 mm 0.00 in0.0 mm
09:00 AM 71.0°F21.7°C 51.9°F11.1°C 51% 2.3 mph NW3.7 kmh NW 4.6 mph7.4 kmh 30.13 in1020.3 mb - 0.00 in0.0 mm 0.00 in0.0 mm
08:50 AM 69.5°F20.8°C 51.6°F10.9°C 53% Calm Calm -- 30.14 in1020.7 mb - 0.00 in0.0 mm 0.00 in0.0 mm
08:40 AM 68.2°F20.1°C 51.4°F10.8°C 55% Calm Calm -- 30.14 in1020.7 mb - 0.00 in0.0 mm 0.00 in0.0 mm
08:30 AM 67.0°F19.4°C 50.7°F10.4°C 56% Calm Calm -- 30.14 in1020.7 mb - 0.00 in0.0 mm 0.00 in0.0 mm
08:20 AM 66.0°F18.9°C 50.8°F10.4°C 58% Calm Calm -- 30.14 in1020.7 mb - 0.00 in0.0 mm 0.00 in0.0 mm
08:10 AM 65.3°F18.5°C 51.5°F10.8°C 61% Calm Calm -- 30.14 in1020.7 mb - 0.00 in0.0 mm 0.00 in0.0 mm
08:00 AM 64.9°F18.3°C 52.0°F11.1°C 63% Calm Calm -- 30.14 in1020.7 mb - 0.00 in0.0 mm 0.00 in0.0 mm
07:50 AM 64.3°F17.9°C 52.3°F11.3°C 65% Calm Calm -- 30.14 in1020.7 mb - 0.00 in0.0 mm 0.00 in0.0 mm
07:40 AM 64.0°F17.8°C 53.2°F11.8°C 68% Calm Calm -- 30.14 in1020.7 mb - 0.00 in0.0 mm 0.00 in0.0 mm
07:30 AM 60.7°F15.9°C 53.8°F12.1°C 78% Calm Calm -- 30.14 in1020.7 mb - 0.00 in0.0 mm 0.00 in0.0 mm
07:20 AM 56.5°F13.6°C 49.4°F9.7°C 77% Calm Calm -- 30.14 in1020.7 mb - 0.00 in0.0 mm 0.00 in0.0 mm
07:10 AM 55.4°F13.0°C 48.3°F9.1°C 77% Calm Calm -- 30.14 in1020.7 mb - 0.00 in0.0 mm 0.00 in0.0 mm
07:00 AM 55.5°F13.1°C 48.4°F9.1°C 77% Calm Calm -- 30.14 in1020.7 mb - 0.00 in0.0 mm 0.00 in0.0 mm
06:50 AM 55.1°F12.8°C 48.0°F8.9°C 77% Calm Calm -- 30.15 in1021.0 mb - 0.00 in0.0 mm 0.00 in0.0 mm
06:40 AM 54.6°F12.6°C 47.5°F8.6°C 77% Calm Calm -- 30.15 in1021.0 mb - 0.00 in0.0 mm 0.00 in0.0 mm
06:30 AM 54.3°F12.4°C 47.2°F8.4°C 77% Calm Calm -- 30.15 in1021.0 mb - 0.00 in0.0 mm 0.00 in0.0 mm
06:20 AM 54.1°F12.3°C 47.0°F8.3°C 77% Calm Calm -- 30.14 in1020.7 mb - 0.00 in0.0 mm 0.00 in0.0 mm
06:10 AM 53.9°F12.2°C 46.8°F8.2°C 77% Calm Calm -- 30.14 in1020.7 mb - 0.00 in0.0 mm 0.00 in0.0 mm
06:00 AM 53.7°F12.1°C 47.0°F8.3°C 78% Calm Calm -- 30.14 in1020.7 mb - 0.00 in0.0 mm 0.00 in0.0 mm
05:50 AM 53.6°F12.0°C 46.6°F8.1°C 77% Calm Calm -- 30.14 in1020.7 mb - 0.00 in0.0 mm 0.00 in0.0 mm
05:40 AM 53.7°F12.1°C 46.7°F8.2°C 77% Calm Calm -- 30.14 in1020.7 mb - 0.00 in0.0 mm 0.00 in0.0 mm
05:30 AM 53.8°F12.1°C 46.7°F8.2°C 77% Calm Calm -- 30.14 in1020.7 mb - 0.00 in0.0 mm 0.00 in0.0 mm
05:20 AM 53.9°F12.2°C 46.9°F8.3°C 77% Calm Calm -- 30.14 in1020.7 mb - 0.00 in0.0 mm 0.00 in0.0 mm
05:10 AM 54.1°F12.3°C 47.0°F8.3°C 77% Calm Calm -- 30.14 in1020.7 mb - 0.00 in0.0 mm 0.00 in0.0 mm
05:00 AM 54.3°F12.4°C 47.2°F8.4°C 77% Calm Calm -- 30.14 in1020.7 mb - 0.00 in0.0 mm 0.00 in0.0 mm
04:50 AM 54.4°F12.4°C 47.3°F8.5°C 77% Calm Calm -- 30.14 in1020.7 mb - 0.00 in0.0 mm 0.00 in0.0 mm
04:40 AM 54.5°F12.5°C 47.4°F8.6°C 77% Calm Calm -- 30.14 in1020.7 mb - 0.00 in0.0 mm 0.00 in0.0 mm
04:30 AM 54.6°F12.6°C 47.5°F8.6°C 77% Calm Calm -- 30.15 in1021.0 mb - 0.00 in0.0 mm 0.00 in0.0 mm
04:20 AM 54.8°F12.7°C 47.7°F8.7°C 77% Calm Calm -- 30.15 in1021.0 mb - 0.00 in0.0 mm 0.00 in0.0 mm
04:10 AM 55.0°F12.8°C 47.9°F8.8°C 77% Calm Calm -- 30.15 in1021.0 mb - 0.00 in0.0 mm 0.00 in0.0 mm
04:00 AM 55.2°F12.9°C 48.1°F8.9°C 77% Calm Calm -- 30.15 in1021.0 mb - 0.00 in0.0 mm 0.00 in0.0 mm
03:50 AM 55.4°F13.0°C 48.3°F9.1°C 77% Calm Calm -- 30.16 in1021.3 mb - 0.00 in0.0 mm 0.00 in0.0 mm
03:40 AM 55.6°F13.1°C 48.5°F9.2°C 77% Calm Calm -- 30.16 in1021.3 mb - 0.00 in0.0 mm 0.00 in0.0 mm
03:30 AM 55.8°F13.2°C 48.7°F9.3°C 77% Calm Calm -- 30.16 in1021.3 mb - 0.00 in0.0 mm 0.00 in0.0 mm
03:20 AM 55.9°F13.3°C 48.8°F9.3°C 77% Calm Calm -- 30.16 in1021.3 mb - 0.00 in0.0 mm 0.00 in0.0 mm
03:10 AM 55.9°F13.3°C 48.8°F9.3°C 77% Calm Calm -- 30.17 in1021.7 mb - 0.00 in0.0 mm 0.00 in0.0 mm
03:00 AM 55.9°F13.3°C 48.8°F9.3°C 77% Calm Calm -- 30.17 in1021.7 mb - 0.00 in0.0 mm 0.00 in0.0 mm
02:50 AM 56.0°F13.3°C 48.9°F9.4°C 77% Calm Calm -- 30.17 in1021.7 mb - 0.00 in0.0 mm 0.00 in0.0 mm
02:40 AM 56.2°F13.4°C 49.1°F9.5°C 77% Calm Calm -- 30.18 in1022.0 mb - 0.00 in0.0 mm 0.00 in0.0 mm
02:30 AM 56.4°F13.6°C 49.3°F9.6°C 77% Calm Calm -- 30.18 in1022.0 mb - 0.00 in0.0 mm 0.00 in0.0 mm
02:20 AM 56.6°F13.7°C 49.5°F9.7°C 77% Calm Calm -- 30.18 in1022.0 mb - 0.00 in0.0 mm 0.00 in0.0 mm
02:10 AM 56.6°F13.7°C 49.5°F9.7°C 77% Calm Calm -- 30.19 in1022.4 mb - 0.00 in0.0 mm 0.00 in0.0 mm
02:00 AM 56.7°F13.7°C 49.6°F9.8°C 77% Calm Calm -- 30.19 in1022.4 mb - 0.00 in0.0 mm 0.00 in0.0 mm
01:50 AM 56.7°F13.7°C 49.6°F9.8°C 77% Calm Calm -- 30.20 in1022.7 mb - 0.00 in0.0 mm 0.00 in0.0 mm
01:40 AM 56.8°F13.8°C 49.7°F9.8°C 77% Calm Calm -- 30.20 in1022.7 mb - 0.00 in0.0 mm 0.00 in0.0 mm
01:30 AM 56.8°F13.8°C 49.7°F9.8°C 77% Calm Calm -- 30.21 in1023.0 mb - 0.00 in0.0 mm 0.00 in0.0 mm
01:20 AM 56.9°F13.8°C 49.8°F9.9°C 77% Calm Calm -- 30.21 in1023.0 mb - 0.00 in0.0 mm 0.00 in0.0 mm
01:10 AM 57.0°F13.9°C 49.9°F9.9°C 77% Calm Calm -- 30.21 in1023.0 mb - 0.00 in0.0 mm 0.00 in0.0 mm
01:00 AM 57.2°F14.0°C 50.1°F10.1°C 77% Calm Calm -- 30.22 in1023.4 mb - 0.00 in0.0 mm 0.00 in0.0 mm
12:50 AM 57.5°F14.2°C 50.3°F10.2°C 77% Calm Calm -- 30.22 in1023.4 mb - 0.00 in0.0 mm 0.00 in0.0 mm
12:40 AM 57.7°F14.3°C 50.5°F10.3°C 77% Calm Calm -- 30.22 in1023.4 mb - 0.00 in0.0 mm 0.00 in0.0 mm
12:30 AM 57.9°F14.4°C 50.7°F10.4°C 77% Calm Calm -- 30.22 in1023.4 mb - 0.00 in0.0 mm 0.00 in0.0 mm
12:20 AM 58.0°F14.4°C 50.9°F10.5°C 77% Calm Calm -- 30.23 in1023.7 mb - 0.00 in0.0 mm 0.00 in0.0 mm
12:10 AM 58.2°F14.6°C 51.0°F10.6°C 77% Calm Calm -- 30.23 in1023.7 mb - 0.00 in0.0 mm 0.00 in0.0 mm
12:00 AM 58.3°F14.6°C 51.1°F10.6°C 77% Calm Calm -- 30.23 in1023.7 mb - 0.00 in0.0 mm 0.00 in0.0 mm